עמוד ראשי
METAR-TAF:

METAR-TAF

שדות תעופה :

פור-דה-פראנס, מרטיניק

קו רוחב: 14-36N, קו אורך: 061-00W, גובה: 5מטר

תצפית מזג אוויר נוכחית

הדו"ח נערך לפני 9דקות, בשעה 20:00 UTC
רוח 9קשר מכיוון מערב/צפון-מערב
טמפרטורת 31 צלסיוס
לחות 55%
לחץ 1010 hPa
ראות 10 קילומטר או יותר
ללא עננים שבסיסם נמוך מ 5000 רגל או קומולונימבוס

METAR: TFFF 222000Z AUTO 29009KT CAVOK 31/21 Q1010 NOSIG

זמן: 16:09 (20:09 UTC)

תחזית

הדו"ח נערך לפני 3 שעות ו 9דקות, בשעה 17:00 UTC
תחזית בתוקף מ 22 ב 18 UTC עד 23 ב 18 UTC
רוח 7קשר מכיוון מערב/צפון-מערב
ראות 10 קילומטר או יותר
עננים פזורים בגובה 3000רגל
הסתברות 30% :
זמנית מ -
23 ב 00 UTC עד 23 ב 03 UTC
ראות: 4000מטר
עננים פזורים בגובה 1800רגל , קומולוס מיגדלי.
ממטרי גשם
הסתברות 30% :
זמנית מ -
23 ב 15 UTC עד 23 ב 18 UTC
ראות: 4000מטר
עננים פזורים בגובה 1800רגל , קומולוס מיגדלי.
ממטרי גשם,

TAF: TFFF 221700Z 2218/2318 29007KT 9999 SCT030 PROB30 TEMPO 2300/2303 4000 SHRA SCT018TCU PROB30 TEMPO 2315/2318 4000 SHRA SCT018TCU

תצפיות ותחזיות מזג אוויר לגבי יותר מ- 4,000 שדות תעופה ברחבי העולם. דוחות METAR ו- TAF.

התחנות הזמינות מסומנות בנקודות צהובות ואדומות על גבי המפה.

העבר את העכבר לנקודה הצבעונית על מנת לראות את שם התחנה.

לאחר מכן, לחץ כדי לראות את תוכן ואת תחזיות מזג האוויר.

כדי לשנות את המפה: לחץ על הכפתורים הירוקים עם הפלוס השחור כדי להתקרב; על הכפתור הירוק עם המקף כדי להתרחק; או בחיצים הירוקים למפות סמוכות.


METAR-TAF: